Time;durP1;ratioP1;P1;durP2;ratioP2;P2;SDS_P1;SDS_P2;PMS_P1;PMS_P2;Temp;Humidity;BMP_temperature;BMP_pressure;BME280_temperature;BME280_humidity;BME280_pressure;Samples;Min_cycle;Max_cycle;Signal;HPM_P1;HPM_P2
2023/06/28 00:01:42;;;;;;;0.50;0.40;;;;;;;21.24;100.00;95112.88;5065679;28;20474;-58
2023/06/28 00:04:14;;;;;;;0.60;0.40;;;;;;;20.90;100.00;95124.13;5067456;28;20529;-57
2023/06/28 00:06:43;;;;;;;0.80;0.70;;;;;;;20.61;100.00;95110.91;5072759;28;20446;-58
2023/06/28 00:09:11;;;;;;;0.70;0.60;;;;;;;20.56;100.00;95108.44;5072242;28;20433;-58
2023/06/28 00:11:40;;;;;;;1.43;0.40;;;;;;;20.71;100.00;95108.56;5073138;28;20500;-58
2023/06/28 00:14:08;;;;;;;0.40;0.30;;;;;;;20.91;100.00;95109.53;5072216;28;20486;-58
2023/06/28 00:16:38;;;;;;;0.50;0.40;;;;;;;21.05;100.00;95104.56;5072576;28;20477;-58
2023/06/28 00:19:06;;;;;;;1.27;1.03;;;;;;;20.99;100.00;95111.31;5071863;28;20475;-58
2023/06/28 00:21:35;;;;;;;0.63;0.63;;;;;;;21.06;100.00;95111.56;5071981;28;20938;-58
2023/06/28 00:24:03;;;;;;;0.50;0.40;;;;;;;20.71;100.00;95110.44;5071979;28;20444;-58
2023/06/28 00:26:31;;;;;;;0.40;0.20;;;;;;;20.97;100.00;95108.19;5072826;28;20481;-58
2023/06/28 00:29:00;;;;;;;1.00;0.43;;;;;;;21.14;100.00;95113.34;5072102;28;20437;-58
2023/06/28 00:31:28;;;;;;;1.17;0.60;;;;;;;21.22;100.00;95114.34;5072265;28;20444;-59
2023/06/28 00:33:58;;;;;;;0.60;0.50;;;;;;;20.76;100.00;95118.31;5072541;28;20516;-59
2023/06/28 00:36:26;;;;;;;0.50;0.43;;;;;;;20.80;100.00;95108.41;5072160;28;21130;-60
2023/06/28 00:38:54;;;;;;;0.60;0.40;;;;;;;21.05;100.00;95103.78;5071793;28;20491;-59
2023/06/28 00:41:22;;;;;;;2.97;0.30;;;;;;;21.00;100.00;95102.09;5072378;28;20926;-59
2023/06/28 00:43:51;;;;;;;0.50;0.40;;;;;;;21.16;100.00;95105.69;5072329;28;21027;-59
2023/06/28 00:46:19;;;;;;;0.53;0.30;;;;;;;21.15;100.00;95109.50;5072278;28;20539;-59
2023/06/28 00:48:48;;;;;;;0.50;0.40;;;;;;;21.13;100.00;95116.38;5072035;28;20438;-59
2023/06/28 00:51:18;;;;;;;0.50;0.40;;;;;;;21.14;100.00;95113.34;5071467;28;20442;-58
2023/06/28 00:53:47;;;;;;;0.60;0.60;;;;;;;21.06;100.00;95102.69;5071357;28;20437;-59
2023/06/28 00:56:15;;;;;;;0.50;0.40;;;;;;;21.04;100.00;95100.31;5070713;28;20445;-60
2023/06/28 00:58:44;;;;;;;0.60;0.40;;;;;;;20.99;100.00;95100.53;5071627;28;20942;-60
2023/06/28 01:01:12;;;;;;;0.67;0.40;;;;;;;20.78;100.00;95100.69;5071457;28;20466;-59
2023/06/28 01:03:41;;;;;;;0.80;0.67;;;;;;;20.60;100.00;95106.63;5071594;28;20437;-60
2023/06/28 01:06:12;;;;;;;0.50;0.40;;;;;;;20.71;100.00;95113.16;5071380;28;20546;-59
2023/06/28 01:08:42;;;;;;;0.80;0.80;;;;;;;20.80;100.00;95103.03;5071878;28;20479;-59
2023/06/28 01:11:11;;;;;;;0.50;0.30;;;;;;;20.61;100.00;95089.38;5071756;28;20516;-59
2023/06/28 01:13:41;;;;;;;0.47;0.30;;;;;;;20.78;100.00;95108.75;5071822;28;20473;-59
2023/06/28 01:16:09;;;;;;;0.50;0.30;;;;;;;20.84;100.00;95106.63;5071328;28;20479;-59
2023/06/28 01:18:38;;;;;;;1.30;0.50;;;;;;;20.85;100.00;95105.50;5071747;28;20446;-59
2023/06/28 01:21:10;;;;;;;0.50;0.30;;;;;;;20.69;100.00;95085.78;5045855;28;20433;-59
2023/06/28 01:23:40;;;;;;;0.87;0.60;;;;;;;20.83;100.00;95108.53;5070832;28;20437;-59
2023/06/28 01:26:09;;;;;;;0.40;0.40;;;;;;;20.51;100.00;95108.66;5071344;28;20481;-59
2023/06/28 01:28:38;;;;;;;0.50;0.30;;;;;;;20.56;100.00;95108.44;5071082;28;20465;-59
2023/06/28 01:31:07;;;;;;;0.50;0.30;;;;;;;20.59;100.00;95118.53;5071212;28;20438;-60
2023/06/28 01:33:35;;;;;;;0.40;0.30;;;;;;;20.63;100.00;95111.34;5071439;28;20441;-59
2023/06/28 01:36:04;;;;;;;0.50;0.43;;;;;;;20.60;100.00;95120.88;5071399;28;20503;-59
2023/06/28 01:38:33;;;;;;;0.90;0.40;;;;;;;20.54;100.00;95116.06;5071654;28;20793;-59
2023/06/28 01:41:03;;;;;;;0.53;0.40;;;;;;;20.45;100.00;95124.25;5071663;28;20449;-60
2023/06/28 01:43:32;;;;;;;0.50;0.40;;;;;;;20.38;100.00;95113.25;5071075;28;20442;-60
2023/06/28 01:46:01;;;;;;;0.40;0.30;;;;;;;20.53;100.00;95120.66;5071462;28;20555;-60
2023/06/28 01:48:29;;;;;;;0.67;0.67;;;;;;;20.53;100.00;95117.19;5071031;28;20442;-59
2023/06/28 01:50:58;;;;;;;0.70;0.40;;;;;;;20.58;100.00;95125.81;5071047;28;20487;-60
2023/06/28 01:53:27;;;;;;;0.80;0.57;;;;;;;20.60;100.00;95128.19;5070896;28;20441;-59
2023/06/28 01:55:55;;;;;;;0.50;0.30;;;;;;;20.52;100.00;95118.28;5071916;28;20602;-59
2023/06/28 01:58:25;;;;;;;4.10;0.73;;;;;;;20.44;100.00;95122.66;5070852;28;20957;-60
2023/06/28 02:00:53;;;;;;;0.50;0.30;;;;;;;20.37;100.00;95111.69;5070305;28;20434;-59
2023/06/28 02:03:21;;;;;;;0.50;0.50;;;;;;;20.44;100.00;95125.34;5071850;28;20996;-60
2023/06/28 02:05:50;;;;;;;0.50;0.40;;;;;;;20.43;100.00;95120.31;5074719;28;20631;-60
2023/06/28 02:08:19;;;;;;;16.43;0.43;;;;;;;20.42;100.00;95124.13;5075202;28;20495;-60
2023/06/28 02:10:48;;;;;;;0.70;0.70;;;;;;;20.36;100.00;95120.09;5074911;28;20859;-59
2023/06/28 02:13:16;;;;;;;0.60;0.40;;;;;;;20.31;100.00;95117.63;5074864;28;20484;-60
2023/06/28 02:15:46;;;;;;;3.03;0.30;;;;;;;19.75;100.00;95117.25;5074869;28;20445;-60
2023/06/28 02:18:16;;;;;;;0.70;0.50;;;;;;;19.45;100.00;95127.34;5074941;28;20437;-60
2023/06/28 02:20:45;;;;;;;2.83;0.60;;;;;;;19.70;100.00;95117.47;5075065;28;20429;-60
2023/06/28 02:23:13;;;;;;;3.47;0.60;;;;;;;19.81;100.00;95123.97;5074367;28;20441;-60
2023/06/28 02:25:41;;;;;;;0.60;0.50;;;;;;;19.95;100.00;95113.72;5060713;28;20491;-60
2023/06/28 02:28:10;;;;;;;0.60;0.30;;;;;;;19.79;100.00;95122.75;5074896;28;20452;-59
2023/06/28 02:30:38;;;;;;;1.37;0.30;;;;;;;20.00;100.00;95124.28;5074250;28;20437;-60
2023/06/28 02:33:08;;;;;;;0.50;0.40;;;;;;;20.10;100.00;95126.53;5074654;28;20941;-60
2023/06/28 02:35:36;;;;;;;1.83;0.90;;;;;;;20.09;100.00;95122.25;5074380;28;20490;-60
2023/06/28 02:38:05;;;;;;;0.80;0.80;;;;;;;20.13;100.00;95120.50;5074923;28;20496;-60
2023/06/28 02:40:34;;;;;;;1.23;0.50;;;;;;;20.08;100.00;95123.41;5047657;28;20520;-60
2023/06/28 02:43:02;;;;;;;0.80;0.80;;;;;;;20.10;100.00;95126.53;5073996;28;20440;-59
2023/06/28 02:45:31;;;;;;;0.40;0.30;;;;;;;20.06;100.00;95122.16;5074141;28;20441;-61
2023/06/28 02:47:59;;;;;;;0.60;0.30;;;;;;;20.04;100.00;95121.69;5073925;28;20461;-60
2023/06/28 02:50:29;;;;;;;0.53;0.30;;;;;;;20.10;100.00;95123.84;5074500;28;20437;-60
2023/06/28 02:52:57;;;;;;;0.50;0.40;;;;;;;20.05;100.00;95125.97;5074124;28;20498;-61
2023/06/28 02:55:26;;;;;;;0.57;0.50;;;;;;;19.46;100.00;95120.84;5074611;28;20522;-60
2023/06/28 02:57:55;;;;;;;0.60;0.40;;;;;;;18.95;100.00;95116.59;5073774;28;20450;-60
2023/06/28 03:00:23;;;;;;;1.20;1.20;;;;;;;18.73;100.00;95116.13;5072427;28;20494;-60
2023/06/28 03:02:51;;;;;;;0.60;0.40;;;;;;;18.64;100.00;95126.13;5071121;28;20979;-60
2023/06/28 03:05:20;;;;;;;0.50;0.40;;;;;;;18.99;100.00;95124.81;5074250;28;20503;-61
2023/06/28 03:07:49;;;;;;;0.70;0.40;;;;;;;19.27;100.00;95114.34;5073348;28;20477;-59
2023/06/28 03:10:18;;;;;;;0.50;0.40;;;;;;;19.59;100.00;95119.78;5073795;28;20487;-61
2023/06/28 03:12:46;;;;;;;0.73;0.47;;;;;;;19.55;100.00;95128.84;5073563;28;20445;-60
2023/06/28 03:15:16;;;;;;;0.50;0.30;;;;;;;19.19;100.00;95126.72;5072633;28;20872;-61
2023/06/28 03:17:44;;;;;;;0.87;0.87;;;;;;;19.39;100.00;95128.66;5073481;28;20487;-61
2023/06/28 03:20:13;;;;;;;0.50;0.30;;;;;;;19.51;100.00;95130.59;5073552;28;20491;-61
2023/06/28 03:22:41;;;;;;;0.50;0.50;;;;;;;19.61;100.00;95132.88;5073403;28;20437;-61
2023/06/28 03:25:11;;;;;;;0.50;0.40;;;;;;;19.36;100.00;95125.78;5073459;28;20503;-59
2023/06/28 03:27:39;;;;;;;0.40;0.30;;;;;;;19.17;100.00;95125.47;5047696;28;20481;-61
2023/06/28 03:30:09;;;;;;;0.80;0.80;;;;;;;18.76;100.00;95116.28;5073247;28;20503;-60
2023/06/28 03:32:37;;;;;;;0.60;0.50;;;;;;;19.18;100.00;95132.41;5073570;28;20434;-61
2023/06/28 03:35:06;;;;;;;0.60;0.50;;;;;;;19.16;100.00;95137.31;5073399;28;20434;-61
2023/06/28 03:37:35;;;;;;;0.60;0.60;;;;;;;19.45;100.00;95140.78;5073633;28;20453;-61
2023/06/28 03:40:04;;;;;;;0.50;0.40;;;;;;;19.67;100.00;95138.84;5073015;28;20460;-61
2023/06/28 03:42:34;;;;;;;0.50;0.30;;;;;;;19.82;100.00;95144.38;5073358;28;20442;-60
2023/06/28 03:45:02;;;;;;;0.70;0.60;;;;;;;19.93;100.00;95134.00;5072942;28;20895;-60
2023/06/28 03:47:30;;;;;;;0.40;0.30;;;;;;;19.80;100.00;95141.25;5073273;28;20568;-60
2023/06/28 03:49:59;;;;;;;1.00;0.53;;;;;;;19.99;100.00;95133.44;5072465;28;20468;-60
2023/06/28 03:52:27;;;;;;;0.50;0.47;;;;;;;19.55;100.00;95136.91;5073261;28;20495;-60
2023/06/28 03:54:55;;;;;;;0.40;0.30;;;;;;;19.72;100.00;95136.72;5072846;28;20438;-60
2023/06/28 03:57:23;;;;;;;0.50;0.40;;;;;;;19.95;100.00;95131.75;5072564;28;20481;-60
2023/06/28 03:59:53;;;;;;;0.50;0.30;;;;;;;20.12;100.00;95131.56;5072342;28;20437;-60
2023/06/28 04:02:22;;;;;;;0.50;0.40;;;;;;;20.01;100.00;95128.53;5072985;28;20867;-60
2023/06/28 04:04:50;;;;;;;0.50;0.40;;;;;;;20.16;100.00;95135.19;5072972;28;20502;-60
2023/06/28 04:07:23;;;;;;;0.60;0.40;;;;;;;20.18;100.00;95131.03;5071357;28;20496;-59
2023/06/28 04:09:53;;;;;;;0.60;0.40;;;;;;;20.33;100.00;95120.75;5073065;28;20437;-60
2023/06/28 04:12:22;;;;;;;0.73;0.70;;;;;;;20.09;100.00;95068.44;5072781;28;21018;-62
2023/06/28 04:14:50;;;;;;;0.60;0.40;;;;;;;20.51;100.00;95124.81;5072508;28;20534;-62
2023/06/28 04:17:20;;;;;;;0.40;0.30;;;;;;;20.51;100.00;95122.13;5072924;28;20441;-58
2023/06/28 04:19:48;;;;;;;0.50;0.43;;;;;;;20.76;100.00;95118.31;5072737;28;20438;-61
2023/06/28 04:22:16;;;;;;;0.50;0.40;;;;;;;20.50;100.00;95123.25;5072449;28;20524;-60
2023/06/28 04:24:44;;;;;;;0.50;0.50;;;;;;;20.51;100.00;95122.13;5072569;28;20871;-60
2023/06/28 04:27:14;;;;;;;2.83;0.53;;;;;;;20.45;100.00;95118.88;5072066;28;21062;-60
2023/06/28 04:29:42;;;;;;;1.07;0.97;;;;;;;20.17;100.00;95118.69;5072315;28;20449;-59
2023/06/28 04:32:23;;;;;;;0.60;0.40;;;;;;;20.36;100.00;95120.09;5067468;28;20435;-59
2023/06/28 04:34:53;;;;;;;0.77;0.73;;;;;;;20.59;100.00;95115.84;5065442;28;20445;-58
2023/06/28 04:37:22;;;;;;;0.53;0.50;;;;;;;20.78;100.00;95097.19;5059659;28;20959;-59
2023/06/28 04:39:50;;;;;;;1.40;0.53;;;;;;;20.15;100.00;94947.94;5071934;28;20499;-59
2023/06/28 04:42:18;;;;;;;0.50;0.47;;;;;;;20.97;100.00;95113.56;5072509;28;20510;-58
2023/06/28 04:44:48;;;;;;;0.50;0.37;;;;;;;20.88;100.00;95115.59;5072019;28;20445;-59
2023/06/28 04:47:16;;;;;;;0.77;0.77;;;;;;;20.52;100.00;95113.69;5072166;28;20505;-59
2023/06/28 04:49:48;;;;;;;0.70;0.60;;;;;;;20.52;100.00;95123.69;5071783;28;21010;-60
2023/06/28 04:52:18;;;;;;;1.47;1.37;;;;;;;20.68;100.00;95105.75;5072343;28;20445;-59
2023/06/28 04:54:48;;;;;;;1.10;1.00;;;;;;;20.70;100.00;95120.44;5071817;28;20933;-59
2023/06/28 04:57:17;;;;;;;0.80;0.80;;;;;;;20.66;100.00;95067.59;5072266;28;20438;-59
2023/06/28 04:59:45;;;;;;;0.93;0.60;;;;;;;20.59;100.00;95105.06;5072384;28;20441;-58
2023/06/28 05:02:14;;;;;;;0.97;0.87;;;;;;;20.53;100.00;95122.56;5071954;28;20441;-59
2023/06/28 05:04:43;;;;;;;1.47;0.87;;;;;;;20.30;100.00;95122.22;5071657;28;20942;-58
2023/06/28 05:07:13;;;;;;;1.03;0.70;;;;;;;19.92;100.00;95127.03;5071876;28;20480;-59
2023/06/28 05:09:41;;;;;;;0.50;0.50;;;;;;;20.29;100.00;95123.31;5071255;28;20524;-58
2023/06/28 05:12:09;;;;;;;1.80;0.60;;;;;;;20.38;100.00;95125.94;5071742;28;20446;-58
2023/06/28 05:14:38;;;;;;;2.10;0.70;;;;;;;20.30;100.00;95132.19;5071829;28;20469;-59
2023/06/28 05:17:06;;;;;;;0.80;0.80;;;;;;;20.47;100.00;95127.38;5071412;28;20492;-58
2023/06/28 05:19:34;;;;;;;0.77;0.77;;;;;;;20.46;100.00;95127.72;5071363;28;20445;-58
2023/06/28 05:22:03;;;;;;;3.80;1.13;;;;;;;20.85;100.00;95125.13;5071757;28;20510;-59
2023/06/28 05:24:33;;;;;;;0.97;0.70;;;;;;;21.02;100.00;95131.41;5071905;28;20469;-59
2023/06/28 05:27:01;;;;;;;0.50;0.47;;;;;;;21.25;100.00;95127.91;5071639;28;20438;-57
2023/06/28 05:29:30;;;;;;;1.03;0.93;;;;;;;21.57;100.00;95133.44;5071439;28;20446;-58
2023/06/28 05:31:59;;;;;;;5.33;0.87;;;;;;;21.48;100.00;95136.25;5071242;28;20821;-57
2023/06/28 05:34:27;;;;;;;2.10;1.10;;;;;;;20.85;100.00;95111.66;5065819;28;20995;-58
2023/06/28 05:36:56;;;;;;;1.57;1.27;;;;;;;21.14;100.00;95124.13;5070684;28;20870;-56
2023/06/28 05:39:24;;;;;;;1.63;1.37;;;;;;;21.24;100.00;95129.03;5070523;28;20503;-58
2023/06/28 05:41:54;;;;;;;0.87;0.87;;;;;;;21.52;100.00;95127.16;5071708;28;20437;-58
2023/06/28 05:44:22;;;;;;;0.60;0.53;;;;;;;22.31;100.00;95132.75;5071575;28;20445;-58
2023/06/28 05:46:52;;;;;;;0.83;0.83;;;;;;;22.45;100.00;95128.50;5071119;28;20434;-58
2023/06/28 05:49:20;;;;;;;0.50;0.40;;;;;;;23.00;100.00;95134.81;5071277;28;20504;-58
2023/06/28 05:51:49;;;;;;;0.83;0.80;;;;;;;22.88;100.00;95135.72;5071675;28;20775;-57
2023/06/28 05:54:17;;;;;;;0.73;0.73;;;;;;;23.17;100.00;95137.16;5071171;28;20467;-59
2023/06/28 05:56:45;;;;;;;0.77;0.60;;;;;;;22.85;100.00;95124.81;5045124;28;20446;-57
2023/06/28 05:59:15;;;;;;;1.37;1.37;;;;;;;22.68;100.00;95132.19;5057925;28;20935;-57
2023/06/28 06:01:43;;;;;;;0.63;0.60;;;;;;;23.01;100.00;95128.28;5071526;28;20457;-57
2023/06/28 06:04:12;;;;;;;0.50;0.50;;;;;;;23.12;96.97;95129.31;5070844;28;20444;-57
2023/06/28 06:06:40;;;;;;;2.07;1.13;;;;;;;22.71;100.00;95119.88;5071283;28;20468;-57
2023/06/28 06:09:09;;;;;;;1.00;1.00;;;;;;;22.84;100.00;95120.56;5071155;28;20568;-57
2023/06/28 06:11:37;;;;;;;0.83;0.83;;;;;;;23.62;98.88;95112.22;5071121;28;20433;-57
2023/06/28 06:14:06;;;;;;;1.33;1.23;;;;;;;23.61;94.49;95103.31;5070896;28;20865;-56
2023/06/28 06:16:35;;;;;;;1.07;0.97;;;;;;;23.69;94.99;95105.03;5071303;28;20452;-56
2023/06/28 06:19:03;;;;;;;3.80;0.50;;;;;;;23.71;96.34;95108.16;5071042;28;20984;-55
2023/06/28 06:21:32;;;;;;;3.63;1.80;;;;;;;24.09;94.75;95099.22;5071256;28;20437;-57
2023/06/28 06:24:01;;;;;;;1.03;1.03;;;;;;;23.66;94.71;95102.25;5070762;28;20459;-58
2023/06/28 06:26:29;;;;;;;0.57;0.57;;;;;;;24.25;93.22;95101.84;5070929;28;20453;-58
2023/06/28 06:28:58;;;;;;;1.17;1.07;;;;;;;23.97;91.74;95102.88;5070866;28;20477;-59
2023/06/28 06:31:27;;;;;;;1.03;0.50;;;;;;;24.47;87.98;95101.84;5070967;28;20977;-59
2023/06/28 06:34:00;;;;;;;0.60;0.60;;;;;;;24.25;86.46;95105.34;5070321;28;20533;-58
2023/06/28 06:36:28;;;;;;;4.80;1.13;;;;;;;24.43;88.61;95105.63;5070811;28;20445;-57
2023/06/28 06:38:57;;;;;;;0.60;0.50;;;;;;;25.05;86.44;95091.50;5070918;28;21012;-59
2023/06/28 06:41:25;;;;;;;1.20;1.10;;;;;;;25.76;83.32;95090.50;5070838;28;20465;-58
2023/06/28 06:43:54;;;;;;;0.50;0.40;;;;;;;25.52;82.23;95092.94;5070676;28;20494;-58
2023/06/28 06:46:22;;;;;;;1.20;1.00;;;;;;;25.30;81.29;95082.94;5071236;28;20452;-59
2023/06/28 06:48:51;;;;;;;1.70;1.60;;;;;;;25.44;81.39;95088.53;5070651;28;20481;-60
2023/06/28 06:51:21;;;;;;;0.60;0.50;;;;;;;25.75;80.45;95085.47;5073259;28;20445;-59
2023/06/28 06:53:49;;;;;;;0.60;0.40;;;;;;;26.42;76.60;95086.94;5074490;28;21016;-60
2023/06/28 06:56:22;;;;;;;0.63;0.50;;;;;;;26.14;78.79;95040.50;5073675;28;20968;-55
2023/06/28 06:58:50;;;;;;;1.57;0.60;;;;;;;27.07;75.85;95083.53;5074800;28;20495;-53
2023/06/28 07:01:18;;;;;;;1.53;1.23;;;;;;;26.80;75.98;95074.84;5074198;28;20859;-53
2023/06/28 07:03:47;;;;;;;1.53;1.43;;;;;;;26.64;74.56;95066.13;5073813;28;20442;-55
2023/06/28 07:06:16;;;;;;;1.27;1.20;;;;;;;27.00;76.65;95076.13;5073815;28;20445;-54
2023/06/28 07:08:47;;;;;;;0.50;0.47;;;;;;;27.11;73.73;95054.44;5074124;28;20473;-53
2023/06/28 07:11:15;;;;;;;0.80;0.70;;;;;;;27.26;73.31;95068.88;5073803;28;20488;-54
2023/06/28 07:13:44;;;;;;;1.50;1.50;;;;;;;26.99;72.00;95055.50;5073770;28;20844;-54
2023/06/28 07:16:12;;;;;;;0.60;0.47;;;;;;;27.03;72.03;95061.00;5074406;28;20473;-55
2023/06/28 07:18:40;;;;;;;0.40;0.30;;;;;;;27.87;70.48;95059.81;5074390;28;20858;-55
2023/06/28 07:21:09;;;;;;;0.93;0.83;;;;;;;27.16;71.31;95053.28;5074211;28;20441;-55
2023/06/28 07:23:37;;;;;;;0.53;0.53;;;;;;;27.73;70.35;95060.53;5073860;28;20957;-55
2023/06/28 07:26:08;;;;;;;0.60;0.50;;;;;;;28.22;67.67;95051.75;5072785;28;20462;-53
2023/06/28 07:28:36;;;;;;;0.80;0.73;;;;;;;28.76;67.73;95051.41;5073363;28;20619;-55
2023/06/28 07:31:04;;;;;;;0.70;0.70;;;;;;;28.49;67.50;95046.72;5073516;28;20491;-56
2023/06/28 07:33:34;;;;;;;0.67;0.63;;;;;;;27.96;65.15;95052.03;5073421;28;20443;-55
2023/06/28 07:36:02;;;;;;;0.70;0.67;;;;;;;27.84;65.07;95055.13;5073737;28;21030;-55
2023/06/28 07:38:30;;;;;;;0.63;0.63;;;;;;;28.52;67.27;95054.88;5073262;28;20491;-55
2023/06/28 07:40:59;;;;;;;0.93;0.93;;;;;;;28.36;64.86;95048.25;5073609;28;20472;-55
2023/06/28 07:43:28;;;;;;;0.70;0.70;;;;;;;28.81;62.61;95042.03;5072826;28;20444;-55
2023/06/28 07:45:59;;;;;;;1.13;0.80;;;;;;;29.28;65.53;95038.03;5073286;28;20446;-55
2023/06/28 07:48:27;;;;;;;0.50;0.40;;;;;;;28.93;62.93;95036.16;5073210;28;20491;-54
2023/06/28 07:50:56;;;;;;;0.60;0.60;;;;;;;29.38;62.73;95029.03;5072782;28;20437;-54
2023/06/28 07:53:24;;;;;;;0.70;0.60;;;;;;;29.37;59.62;95036.44;5073279;28;20520;-55
2023/06/28 07:55:53;;;;;;;0.50;0.50;;;;;;;29.65;59.28;95032.81;5073328;28;20437;-55
2023/06/28 07:58:21;;;;;;;0.83;0.50;;;;;;;29.66;61.16;94987.94;5073359;28;20442;-54
2023/06/28 08:00:51;;;;;;;1.40;1.40;;;;;;;29.78;61.21;95025.75;5072578;28;20491;-54
2023/06/28 08:03:20;;;;;;;0.83;0.83;;;;;;;29.95;58.27;95021.38;5073377;28;20819;-54
2023/06/28 08:05:48;;;;;;;1.17;0.50;;;;;;;30.05;59.75;95015.06;5073233;28;20452;-54
2023/06/28 08:08:17;;;;;;;0.50;0.50;;;;;;;30.47;58.01;95005.78;5073095;28;20441;-54
2023/06/28 08:10:45;;;;;;;0.50;0.40;;;;;;;30.59;57.54;95024.41;5072615;28;21016;-54
2023/06/28 08:13:14;;;;;;;2.57;0.50;;;;;;;30.90;57.05;95015.16;5071862;28;20433;-55
2023/06/28 08:15:42;;;;;;;5.13;0.60;;;;;;;30.27;57.35;95015.66;5072535;28;20524;-55
2023/06/28 08:18:15;;;;;;;0.70;0.70;;;;;;;29.42;56.65;95014.19;5073059;28;20444;-55
2023/06/28 08:20:45;;;;;;;1.27;0.50;;;;;;;29.98;59.73;95017.84;5073046;28;20512;-55
2023/06/28 08:23:14;;;;;;;1.10;1.00;;;;;;;29.94;56.29;95006.13;5072753;28;20432;-55
2023/06/28 08:25:42;;;;;;;1.03;1.03;;;;;;;30.27;54.93;95016.44;5072453;28;20539;-55
2023/06/28 08:28:11;;;;;;;0.60;0.50;;;;;;;31.30;53.82;95011.59;5073173;28;20460;-55
2023/06/28 08:30:39;;;;;;;0.87;0.77;;;;;;;30.17;54.19;94996.22;5065666;28;20573;-55
2023/06/28 08:33:08;;;;;;;0.80;0.80;;;;;;;31.38;53.91;94996.63;5065842;28;20949;-54
2023/06/28 08:35:38;;;;;;;0.40;0.30;;;;;;;31.74;51.95;94987.97;5046277;28;20477;-54
2023/06/28 08:38:06;;;;;;;0.53;0.53;;;;;;;31.22;50.39;94993.69;5072206;28;20471;-54
2023/06/28 08:40:35;;;;;;;2.10;1.17;;;;;;;31.88;49.30;94990.50;5072727;28;20441;-55
2023/06/28 08:43:06;;;;;;;0.67;0.67;;;;;;;31.91;50.86;94987.72;5071673;28;20437;-54
2023/06/28 08:45:34;;;;;;;1.13;1.13;;;;;;;31.43;50.80;94987.19;5072406;28;20440;-54
2023/06/28 08:48:04;;;;;;;0.80;0.60;;;;;;;31.33;51.49;94963.44;5071835;28;20445;-57
2023/06/28 08:50:54;;;;;;;0.43;0.40;;;;;;;32.15;49.26;94983.09;5072268;28;21133;-56
2023/06/28 08:53:25;;;;;;;0.50;0.40;;;;;;;32.78;46.62;94977.75;5071668;28;20465;-55
2023/06/28 08:55:55;;;;;;;1.70;0.77;;;;;;;32.32;47.12;94982.03;5072185;28;20493;-56
2023/06/28 08:58:24;;;;;;;0.50;0.50;;;;;;;31.55;47.43;94981.19;5046096;28;20433;-56
2023/06/28 09:00:53;;;;;;;0.60;0.50;;;;;;;32.44;48.60;94978.69;5072077;28;20448;-56
2023/06/28 09:03:21;;;;;;;0.40;0.30;;;;;;;32.80;47.62;94975.38;5072106;28;20440;-56
2023/06/28 09:05:54;;;;;;;2.60;0.50;;;;;;;32.51;45.00;94975.84;5071894;28;20867;-57
2023/06/28 09:08:23;;;;;;;0.47;0.30;;;;;;;31.89;46.05;94913.38;5072250;28;20441;-56
2023/06/28 09:10:51;;;;;;;0.70;0.50;;;;;;;32.79;48.16;94962.84;5071548;28;20496;-56
2023/06/28 09:13:21;;;;;;;0.93;0.40;;;;;;;32.81;47.72;94955.75;5071036;28;20437;-56
2023/06/28 09:15:50;;;;;;;0.60;0.50;;;;;;;32.34;48.04;94971.41;5071770;28;20502;-54
2023/06/28 09:18:19;;;;;;;0.60;0.60;;;;;;;31.80;50.10;94973.41;5071954;28;20442;-55
2023/06/28 09:20:51;;;;;;;0.70;0.67;;;;;;;31.66;47.60;94968.13;5071301;28;20444;-54
2023/06/28 09:23:25;;;;;;;0.77;0.77;;;;;;;32.28;47.32;94961.34;5072087;28;20437;-54
2023/06/28 09:25:54;;;;;;;1.80;0.70;;;;;;;32.43;47.55;94963.44;5072001;28;20530;-54
2023/06/28 09:28:24;;;;;;;0.43;0.43;;;;;;;33.16;48.26;94959.81;5072151;28;20449;-55
2023/06/28 09:30:53;;;;;;;0.60;0.60;;;;;;;32.66;50.03;94959.16;5071501;28;20572;-54
2023/06/28 09:33:22;;;;;;;0.60;0.60;;;;;;;32.28;49.37;94955.88;5071255;28;20441;-53
2023/06/28 09:35:54;;;;;;;0.40;0.40;;;;;;;33.44;48.56;94953.72;5072091;28;20448;-54
2023/06/28 09:38:25;;;;;;;0.40;0.40;;;;;;;34.25;45.77;94940.16;5071268;28;20520;-55
2023/06/28 09:40:56;;;;;;;0.70;0.60;;;;;;;34.65;46.41;94949.00;5071717;28;20953;-54
2023/06/28 09:43:25;;;;;;;0.70;0.70;;;;;;;33.93;46.01;94951.13;5071553;28;20445;-54
2023/06/28 09:45:54;;;;;;;2.33;0.50;;;;;;;32.84;47.81;94952.13;5071471;28;20453;-56
2023/06/28 09:48:24;;;;;;;0.50;0.50;;;;;;;32.34;47.57;94946.75;5071497;28;20472;-55
2023/06/28 09:50:53;;;;;;;0.40;0.40;;;;;;;32.70;48.03;94946.16;5071830;28;20476;-54
2023/06/28 09:53:22;;;;;;;0.67;0.67;;;;;;;31.80;48.84;94943.25;5071332;28;20483;-54
2023/06/28 09:55:52;;;;;;;1.10;1.00;;;;;;;33.57;46.96;94934.66;5071776;28;20442;-54
2023/06/28 09:58:21;;;;;;;0.50;0.50;;;;;;;34.09;46.13;94899.66;5071741;28;20829;-54
2023/06/28 10:00:51;;;;;;;0.57;0.57;;;;;;;33.65;47.31;94942.28;5070943;28;20803;-54
2023/06/28 10:03:23;;;;;;;4.10;0.50;;;;;;;33.65;47.45;94939.53;5071385;28;20440;-54
2023/06/28 10:05:54;;;;;;;0.43;0.33;;;;;;;33.00;47.68;94927.53;5070904;28;20574;-54
2023/06/28 10:08:23;;;;;;;0.47;0.47;;;;;;;32.35;49.55;94939.28;5071046;28;21086;-54
2023/06/28 10:10:55;;;;;;;1.30;1.03;;;;;;;32.20;50.31;94910.53;5070868;28;20915;-54
2023/06/28 10:13:27;;;;;;;0.43;0.40;;;;;;;33.20;49.87;94925.56;5071243;28;20466;-54
2023/06/28 10:16:03;;;;;;;0.40;0.30;;;;;;;33.61;48.62;94908.63;5070691;28;20441;-54
2023/06/28 10:18:32;;;;;;;0.40;0.40;;;;;;;33.23;49.87;94926.69;5058661;28;20448;-54
2023/06/28 10:21:02;;;;;;;0.60;0.60;;;;;;;32.81;50.25;94916.53;5071207;28;20445;-54
2023/06/28 10:23:35;;;;;;;0.50;0.40;;;;;;;33.28;50.83;94915.22;5070404;28;20506;-55
2023/06/28 10:26:05;;;;;;;1.10;0.47;;;;;;;33.63;46.37;94905.44;5062648;28;20441;-56
2023/06/28 10:28:34;;;;;;;8.93;0.77;;;;;;;34.18;46.10;94912.84;5072942;28;20444;-54
2023/06/28 10:31:04;;;;;;;0.50;0.50;;;;;;;33.91;45.22;94898.50;5064227;28;20472;-55
2023/06/28 10:33:33;;;;;;;0.50;0.40;;;;;;;34.13;44.94;94850.81;5074327;28;21185;-55
2023/06/28 10:36:03;;;;;;;0.70;0.60;;;;;;;34.40;45.71;94903.59;5074802;28;20536;-55
2023/06/28 10:38:33;;;;;;;1.00;1.00;;;;;;;34.40;43.56;94897.31;5074362;28;20437;-56
2023/06/28 10:41:02;;;;;;;0.70;0.50;;;;;;;34.54;42.89;94896.94;5074695;28;20445;-55
2023/06/28 10:43:32;;;;;;;0.80;0.80;;;;;;;34.04;41.32;94899.38;5074711;28;20191;-56
2023/06/28 10:46:01;;;;;;;1.40;1.30;;;;;;;33.98;43.60;94890.13;5074377;28;20447;-56
2023/06/28 10:48:31;;;;;;;0.50;0.40;;;;;;;35.28;42.21;94889.41;5074246;28;20251;-55
2023/06/28 10:51:01;;;;;;;0.80;0.80;;;;;;;33.99;41.72;94888.88;5074271;28;20215;-56
2023/06/28 10:53:30;;;;;;;0.83;0.60;;;;;;;35.29;41.35;94885.47;5048515;28;20285;-57
2023/06/28 10:56:10;;;;;;;0.53;0.53;;;;;;;36.22;40.05;94881.41;5074151;28;20667;-55
2023/06/28 10:58:41;;;;;;;0.53;0.53;;;;;;;36.01;39.85;94877.34;5073784;28;20203;-55
2023/06/28 11:01:10;;;;;;;0.50;0.50;;;;;;;35.77;39.57;94837.53;5074083;28;20205;-55
2023/06/28 11:03:40;;;;;;;1.30;1.20;;;;;;;34.46;39.89;94877.09;5074338;28;20671;-55
2023/06/28 11:06:09;;;;;;;0.80;0.80;;;;;;;34.19;40.19;94878.59;5074175;28;20248;-55
2023/06/28 11:08:41;;;;;;;0.40;0.30;;;;;;;36.03;36.97;94877.69;5074084;28;20234;-56
2023/06/28 11:11:10;;;;;;;0.30;0.30;;;;;;;36.63;36.69;94823.22;5061207;28;20222;-55
2023/06/28 11:13:48;;;;;;;0.80;0.70;;;;;;;35.27;32.83;94862.31;5073883;28;20309;-56
2023/06/28 11:16:21;;;;;;;0.40;0.30;;;;;;;34.95;37.70;94865.94;5049536;28;20202;-55
2023/06/28 11:18:51;;;;;;;0.83;0.83;;;;;;;35.04;37.01;94880.66;5073769;28;20198;-56
2023/06/28 11:21:23;;;;;;;2.00;0.80;;;;;;;34.99;34.00;94867.41;5074180;28;20671;-54
2023/06/28 11:23:54;;;;;;;1.03;0.90;;;;;;;35.59;34.35;94864.91;5073514;28;20202;-55
2023/06/28 11:26:34;;;;;;;0.40;0.40;;;;;;;35.05;34.07;94862.16;5074122;28;20225;-55
2023/06/28 11:29:17;;;;;;;0.77;0.77;;;;;;;34.93;34.47;94863.66;5073193;28;20229;-55
2023/06/28 11:31:49;;;;;;;0.60;0.40;;;;;;;34.16;35.47;94862.94;5073683;28;20219;-55
2023/06/28 11:34:18;;;;;;;0.60;0.60;;;;;;;33.76;35.32;94871.38;5073741;28;20231;-54
2023/06/28 11:36:47;;;;;;;0.50;0.50;;;;;;;32.69;37.46;94815.63;5072785;28;20226;-55
2023/06/28 11:39:17;;;;;;;1.70;0.83;;;;;;;32.48;36.56;94866.16;5073725;28;20445;-55